Etusivu
METAR-TAF:

METAR-TAF

Lentoasemat :

Hebron Municipal Airport

Hebron, Nebraska, Yhdysvallat

Leveyspiiri: 40-09-08N, Pituuspiiri: 097-35-13W, korkeus merenpinnasta: 447 m

Tämänhetkinen sää

Tämä raportti tehtiin 21 minuuttia sitten, kello 19.35 UTC
Tuuli 9 kn koillisesta puuskistuen 14 kn:hen
Lämpötila 35°C
Kosteus 39%
Ilmanpaine 1010 hPa
Näkyvyys: 16.1 km
selkeää

METAR: KHJH 131935Z AUTO 04009G14KT 10SM CLR 35/19 A2983 RMK AO2 T03510194

Aika: 14:56 (19:56 UTC)


TAF: puuttuu

Säähavainnot ja -ennusteet yli 4000 lentoasemalta (METAR- ja TAF-raportit).

Käytössä olevat sääasemat on merkitty karttaan keltaisilla ja punaisilla pisteillä.

Aseta hiiri pisteen päälle nähdäksesi sääaseman nimen.

Klikkaa sitten nähdäksesi säähavainnot ja -ennusteet.

Kartan vaihtaminen: klikkaa mustalla rastilla varustettuja vihreitä pisteitä, niin voit zoomata sisään; viivalla varustettua vihreää pistettä, niin voit zoomata ulos tai vihreitä nuolia, niin pääset viereisille kartoille.


METAR-TAF: